Time;durP1;ratioP1;P1;durP2;ratioP2;P2;SDS_P1;SDS_P2;PMS_P1;PMS_P2;Temp;Humidity;BMP_temperature;BMP_pressure;BME280_temperature;BME280_humidity;BME280_pressure;Samples;Min_cycle;Max_cycle;Signal;HPM_P1;HPM_P2
2023/06/04 00:02:24;;;;;;;0.70;0.50;;;17.10;52.80;;;;;;5027012;28;20040;-62
2023/06/04 00:04:50;;;;;;;0.30;0.30;;;17.10;52.80;;;;;;5027862;28;20025;-62
2023/06/04 00:07:16;;;;;;;0.40;0.40;;;17.10;52.70;;;;;;5034646;28;20051;-63
2023/06/04 00:09:42;;;;;;;0.40;0.35;;;17.00;52.70;;;;;;5038207;28;20026;-62
2023/06/04 00:12:08;;;;;;;1.40;0.70;;;17.00;52.70;;;;;;5036954;28;20032;-62
2023/06/04 00:14:34;;;;;;;0.95;0.60;;;17.00;52.80;;;;;;5028592;28;20461;-62
2023/06/04 00:16:59;;;;;;;0.77;0.50;;;17.00;53.00;;;;;;5028742;28;20032;-62
2023/06/04 00:19:25;;;;;;;1.20;0.45;;;16.90;53.10;;;;;;5025616;28;20044;-62
2023/06/04 00:21:51;;;;;;;0.52;0.30;;;16.90;53.20;;;;;;5027798;28;20159;-62
2023/06/04 00:24:17;;;;;;;0.60;0.40;;;16.90;53.20;;;;;;5027985;28;20508;-62
2023/06/04 00:26:44;;;;;;;0.50;0.35;;;16.80;53.20;;;;;;5030176;28;20052;-62
2023/06/04 00:29:09;;;;;;;0.30;0.30;;;16.80;53.20;;;;;;5026503;28;20064;-62
2023/06/04 00:31:35;;;;;;;0.20;0.20;;;16.80;53.10;;;;;;5027400;28;20127;-62
2023/06/04 00:34:02;;;;;;;0.20;0.20;;;16.70;53.20;;;;;;5030022;28;20102;-62
2023/06/04 00:36:28;;;;;;;0.65;0.30;;;16.70;53.30;;;;;;5032863;28;20048;-62
2023/06/04 00:38:54;;;;;;;0.75;0.40;;;16.70;53.20;;;;;;5029544;28;20025;-62
2023/06/04 00:41:20;;;;;;;0.40;0.40;;;16.70;53.20;;;;;;5032378;28;20416;-62
2023/06/04 00:43:55;;;;;;;0.52;0.52;;;16.60;53.10;;;;;;5026420;28;20445;-62
2023/06/04 00:46:27;;;;;;;0.50;0.45;;;16.60;53.20;;;;;;5029536;28;20079;-62
2023/06/04 00:48:54;;;;;;;1.38;0.40;;;16.60;53.40;;;;;;5035454;28;20030;-62
2023/06/04 00:51:21;;;;;;;0.95;0.77;;;16.50;53.50;;;;;;5042699;28;20104;-62
2023/06/04 00:53:48;;;;;;;0.57;0.30;;;16.40;53.80;;;;;;5037886;28;20037;-62
2023/06/04 00:56:14;;;;;;;0.63;0.50;;;16.40;53.70;;;;;;5041353;28;20471;-62
2023/06/04 00:58:40;;;;;;;0.30;0.22;;;16.40;53.70;;;;;;5032726;28;20029;-62
2023/06/04 01:01:19;;;;;;;0.50;0.30;;;16.40;53.80;;;;;;5037662;28;20044;-62
2023/06/04 01:03:49;;;;;;;4.45;0.30;;;16.30;53.70;;;;;;5035408;28;20029;-62
2023/06/04 01:06:22;;;;;;;0.73;0.60;;;16.30;53.80;;;;;;5024101;28;20033;-63
2023/06/04 01:08:54;;;;;;;0.90;0.40;;;16.30;53.80;;;;;;5029465;28;20496;-62
2023/06/04 01:11:40;;;;;;;;;;;16.20;53.80;;;;;;5033065;28;20203;-62
2023/06/04 01:14:11;;;;;;;0.40;0.30;;;16.20;53.90;;;;;;5034942;28;20246;-62
2023/06/04 01:16:43;;;;;;;0.38;0.38;;;16.10;54.00;;;;;;5033896;28;20053;-62
2023/06/04 01:19:37;;;;;;;3.40;0.57;;;16.10;53.90;;;;;;5032704;28;20025;-62
2023/06/04 01:22:08;;;;;;;0.40;0.40;;;16.00;53.90;;;;;;5033370;28;20056;-62
2023/06/04 01:24:37;;;;;;;1.27;0.77;;;16.00;54.10;;;;;;5033630;28;20016;-62
2023/06/04 01:27:05;;;;;;;1.10;0.40;;;15.90;54.00;;;;;;5026258;28;20477;-61
2023/06/04 01:29:32;;;;;;;0.20;0.20;;;15.90;54.00;;;;;;5033186;28;20100;-63
2023/06/04 01:31:58;;;;;;;1.75;0.47;;;15.90;54.00;;;;;;5024529;28;20045;-62
2023/06/04 01:34:24;;;;;;;1.17;0.47;;;15.80;54.00;;;;;;5031397;28;20029;-62
2023/06/04 01:36:50;;;;;;;0.40;0.40;;;15.80;54.00;;;;;;5031786;28;20029;-62
2023/06/04 01:39:17;;;;;;;0.60;0.60;;;15.80;54.10;;;;;;5029328;28;20022;-62
2023/06/04 01:41:42;;;;;;;1.58;0.50;;;15.80;54.30;;;;;;5026034;28;20030;-62
2023/06/04 01:44:08;;;;;;;0.30;0.30;;;15.70;54.20;;;;;;5029478;28;20029;-62
2023/06/04 01:46:33;;;;;;;0.50;0.30;;;15.80;54.30;;;;;;5030271;28;20108;-63
2023/06/04 01:48:59;;;;;;;0.40;0.40;;;15.80;54.20;;;;;;5030961;28;20030;-62
2023/06/04 01:51:25;;;;;;;2.38;0.28;;;15.70;54.20;;;;;;5031251;28;20112;-62
2023/06/04 01:53:50;;;;;;;0.40;0.40;;;15.70;54.20;;;;;;5038965;28;20194;-62
2023/06/04 01:56:16;;;;;;;0.63;0.45;;;15.70;54.00;;;;;;5026397;28;20033;-62
2023/06/04 01:58:42;;;;;;;0.57;0.32;;;15.70;54.10;;;;;;5041817;28;20499;-63
2023/06/04 02:01:09;;;;;;;1.00;0.60;;;15.70;54.10;;;;;;5032657;28;20663;-62
2023/06/04 02:03:36;;;;;;;0.65;0.45;;;15.60;54.10;;;;;;5040819;28;20175;-62
2023/06/04 02:06:07;;;;;;;0.63;0.47;;;15.60;54.30;;;;;;5037486;28;20057;-62
2023/06/04 02:08:33;;;;;;;0.50;0.50;;;15.60;54.40;;;;;;5040751;28;20028;-62
2023/06/04 02:10:59;;;;;;;0.40;0.30;;;15.50;54.50;;;;;;5047954;28;20045;-62
2023/06/04 02:13:25;;;;;;;0.43;0.43;;;15.50;54.70;;;;;;5024897;28;20029;-62
2023/06/04 02:15:51;;;;;;;3.40;0.63;;;15.50;54.80;;;;;;5048527;28;20040;-62
2023/06/04 02:18:20;;;;;;;0.95;0.50;;;15.50;54.80;;;;;;5035924;28;20109;-62
2023/06/04 02:20:47;;;;;;;0.32;0.32;;;15.40;54.80;;;;;;5035022;28;20029;-62
2023/06/04 02:23:14;;;;;;;2.20;0.25;;;15.30;54.90;;;;;;5033139;28;20026;-62
2023/06/04 02:25:39;;;;;;;1.88;0.85;;;15.30;54.80;;;;;;5047761;28;20528;-62
2023/06/04 02:28:06;;;;;;;2.72;0.50;;;15.30;54.90;;;;;;5027946;28;20508;-62
2023/06/04 02:30:31;;;;;;;1.42;0.63;;;15.30;54.90;;;;;;5026750;28;20035;-62
2023/06/04 02:33:00;;;;;;;0.32;0.30;;;15.30;54.80;;;;;;5034720;28;20053;-62
2023/06/04 02:35:30;;;;;;;0.98;0.30;;;15.20;55.00;;;;;;5033815;28;20052;-63
2023/06/04 02:37:59;;;;;;;0.32;0.32;;;15.20;54.90;;;;;;5036828;28;20031;-62
2023/06/04 02:40:25;;;;;;;0.73;0.55;;;15.20;55.10;;;;;;5041006;28;20033;-62
2023/06/04 02:42:52;;;;;;;0.75;0.40;;;15.10;55.20;;;;;;5040655;28;20025;-62
2023/06/04 02:45:18;;;;;;;0.43;0.40;;;15.10;55.40;;;;;;5035033;28;20116;-62
2023/06/04 02:47:44;;;;;;;1.65;0.63;;;15.10;55.20;;;;;;5026474;28;20120;-62
2023/06/04 02:50:10;;;;;;;0.95;0.45;;;15.10;55.20;;;;;;5024385;28;20030;-62
2023/06/04 02:52:39;;;;;;;1.13;0.40;;;15.10;55.30;;;;;;5027047;28;20044;-63
2023/06/04 02:55:09;;;;;;;0.40;0.40;;;15.00;55.40;;;;;;5023850;28;20034;-62
2023/06/04 02:57:35;;;;;;;0.60;0.45;;;15.00;55.60;;;;;;5029483;28;20152;-62
2023/06/04 03:00:11;;;;;;;1.50;0.70;;;15.00;55.70;;;;;;5027564;28;20057;-62
2023/06/04 03:02:41;;;;;;;0.95;0.32;;;14.90;55.70;;;;;;5024056;28;20432;-62
2023/06/04 03:05:10;;;;;;;1.02;0.60;;;14.90;55.70;;;;;;5045019;28;20014;-62
2023/06/04 03:07:37;;;;;;;0.50;0.50;;;14.90;56.00;;;;;;5027295;28;20017;-63
2023/06/04 03:10:04;;;;;;;0.85;0.82;;;14.80;56.00;;;;;;5029595;28;20029;-62
2023/06/04 03:12:30;;;;;;;1.25;0.43;;;14.80;56.00;;;;;;5027739;28;20034;-62
2023/06/04 03:14:56;;;;;;;0.47;0.47;;;14.80;56.10;;;;;;5029623;28;20075;-62
2023/06/04 03:17:22;;;;;;;2.42;0.70;;;14.80;56.20;;;;;;5012018;28;20022;-62
2023/06/04 03:19:48;;;;;;;0.63;0.43;;;14.80;56.20;;;;;;5026562;28;20350;-62
2023/06/04 03:22:14;;;;;;;1.00;0.30;;;14.80;56.20;;;;;;5026516;28;20064;-62
2023/06/04 03:24:41;;;;;;;0.50;0.43;;;14.80;56.40;;;;;;5030386;28;20388;-62
2023/06/04 03:27:08;;;;;;;1.13;0.65;;;14.70;56.60;;;;;;5017098;28;20469;-62
2023/06/04 03:29:35;;;;;;;0.75;0.60;;;14.70;56.70;;;;;;5025038;28;20461;-62
2023/06/04 03:32:01;;;;;;;0.60;0.60;;;14.70;56.60;;;;;;5030183;28;20044;-62
2023/06/04 03:34:27;;;;;;;0.52;0.30;;;14.70;56.60;;;;;;5026218;28;20056;-62
2023/06/04 03:36:56;;;;;;;0.85;0.35;;;14.70;56.70;;;;;;5016693;28;20034;-62
2023/06/04 03:39:22;;;;;;;3.75;0.75;;;14.70;56.80;;;;;;5022687;28;20162;-62
2023/06/04 03:41:48;;;;;;;0.40;0.40;;;14.70;56.90;;;;;;5030299;28;20119;-61
2023/06/04 03:44:15;;;;;;;0.85;0.63;;;14.60;56.90;;;;;;5019967;28;20029;-62
2023/06/04 03:46:44;;;;;;;0.43;0.40;;;14.70;57.10;;;;;;5024709;28;20485;-62
2023/06/04 03:49:12;;;;;;;0.88;0.52;;;14.60;57.00;;;;;;5023779;28;20379;-62
2023/06/04 03:51:38;;;;;;;0.63;0.40;;;14.60;57.10;;;;;;5019660;28;20041;-62
2023/06/04 03:54:04;;;;;;;0.77;0.40;;;14.60;57.20;;;;;;5024201;28;20018;-62
2023/06/04 03:56:30;;;;;;;2.22;0.38;;;14.60;57.40;;;;;;5054109;28;20035;-62
2023/06/04 03:58:56;;;;;;;0.47;0.40;;;14.60;57.30;;;;;;5028181;28;20528;-62
2023/06/04 04:01:23;;;;;;;1.20;0.90;;;14.60;57.50;;;;;;5028532;28;20037;-62
2023/06/04 04:03:50;;;;;;;0.68;0.40;;;14.60;57.50;;;;;;5030154;28;20479;-63
2023/06/04 04:06:16;;;;;;;0.47;0.40;;;14.60;57.70;;;;;;5029187;28;20357;-63
2023/06/04 04:08:43;;;;;;;0.82;0.70;;;14.50;57.60;;;;;;5028999;28;20029;-63
2023/06/04 04:11:16;;;;;;;0.73;0.50;;;14.50;57.70;;;;;;5025110;28;20037;-63
2023/06/04 04:13:44;;;;;;;0.52;0.52;;;14.60;57.90;;;;;;5019844;28;20025;-63
2023/06/04 04:16:10;;;;;;;1.38;0.70;;;14.50;58.10;;;;;;5026951;28;20021;-63
2023/06/04 04:18:36;;;;;;;0.45;0.45;;;14.60;58.20;;;;;;5027619;28;20439;-63
2023/06/04 04:21:04;;;;;;;1.23;0.90;;;14.60;58.20;;;;;;5028921;28;20465;-63
2023/06/04 04:23:31;;;;;;;0.40;0.40;;;14.50;58.30;;;;;;5023747;28;20496;-62
2023/06/04 04:25:59;;;;;;;1.52;0.60;;;14.60;58.60;;;;;;5022142;28;20076;-62
2023/06/04 04:28:28;;;;;;;0.95;0.57;;;14.60;59.30;;;;;;5024441;28;20067;-63
2023/06/04 04:30:57;;;;;;;0.88;0.55;;;14.60;58.70;;;;;;5026746;28;20048;-63
2023/06/04 04:33:26;;;;;;;2.22;0.50;;;14.60;58.70;;;;;;5033587;28;20504;-63
2023/06/04 04:35:53;;;;;;;0.82;0.60;;;14.60;58.70;;;;;;5027905;28;20038;-63
2023/06/04 04:38:23;;;;;;;1.77;0.77;;;14.70;58.70;;;;;;5030528;28;20033;-63
2023/06/04 04:40:51;;;;;;;0.82;0.60;;;14.70;58.60;;;;;;5027667;28;20026;-63
2023/06/04 04:43:28;;;;;;;0.47;0.47;;;14.70;58.50;;;;;;5027147;28;20068;-63
2023/06/04 04:45:53;;;;;;;0.50;0.50;;;14.80;58.50;;;;;;5025914;28;20043;-62
2023/06/04 04:48:19;;;;;;;1.05;0.40;;;14.80;58.60;;;;;;5026498;28;20067;-63
2023/06/04 04:50:45;;;;;;;1.17;0.75;;;14.80;58.50;;;;;;5025422;28;20113;-63
2023/06/04 04:53:10;;;;;;;1.08;0.57;;;14.90;58.60;;;;;;5033169;28;20030;-63
2023/06/04 04:55:36;;;;;;;0.80;0.55;;;15.00;58.70;;;;;;5027976;28;20105;-62
2023/06/04 04:58:02;;;;;;;0.65;0.57;;;15.00;58.70;;;;;;5035203;28;20031;-62
2023/06/04 05:00:28;;;;;;;0.95;0.60;;;15.00;58.60;;;;;;5027268;28;20106;-63
2023/06/04 05:02:54;;;;;;;1.20;0.70;;;15.10;58.60;;;;;;5024173;28;20018;-63
2023/06/04 05:05:20;;;;;;;0.60;0.40;;;15.10;58.50;;;;;;5027946;28;20042;-63
2023/06/04 05:07:45;;;;;;;0.50;0.47;;;15.10;58.50;;;;;;5026153;28;20028;-63
2023/06/04 05:10:12;;;;;;;0.55;0.40;;;15.20;58.70;;;;;;5024409;28;20029;-63
2023/06/04 05:12:38;;;;;;;4.22;0.88;;;15.30;58.50;;;;;;5036234;28;20021;-63
2023/06/04 05:15:04;;;;;;;2.13;0.60;;;15.30;58.60;;;;;;5025035;28;20101;-63
2023/06/04 05:17:29;;;;;;;1.58;0.82;;;15.40;58.70;;;;;;5025660;28;20026;-63
2023/06/04 05:20:11;;;;;;;0.63;0.60;;;15.40;58.70;;;;;;5032363;28;20021;-63
2023/06/04 05:22:37;;;;;;;0.37;0.23;;;15.50;58.70;;;;;;5030733;28;20026;-61
2023/06/04 05:25:03;;;;;;;0.40;0.40;;;15.50;58.50;;;;;;5032552;28;20104;-61
2023/06/04 05:27:31;;;;;;;0.40;0.30;;;15.60;58.50;;;;;;5036255;28;20025;-61
2023/06/04 05:29:57;;;;;;;1.95;0.82;;;15.60;58.40;;;;;;5029122;28;20148;-61
2023/06/04 05:32:23;;;;;;;0.77;0.70;;;15.70;58.50;;;;;;5035159;28;20037;-60
2023/06/04 05:34:49;;;;;;;1.70;0.57;;;15.70;58.30;;;;;;5031883;28;20443;-61
2023/06/04 05:37:18;;;;;;;0.50;0.50;;;15.80;58.20;;;;;;5030063;28;20038;-61
2023/06/04 05:39:43;;;;;;;0.70;0.55;;;15.90;58.10;;;;;;5027436;28;20026;-63
2023/06/04 05:42:09;;;;;;;0.40;0.40;;;16.00;57.90;;;;;;5020345;28;20037;-63
2023/06/04 05:44:35;;;;;;;1.15;0.25;;;16.00;57.80;;;;;;5029442;28;20045;-63
2023/06/04 05:47:01;;;;;;;0.55;0.50;;;16.10;57.70;;;;;;5023517;28;20112;-64
2023/06/04 05:49:27;;;;;;;0.85;0.55;;;16.20;57.70;;;;;;5033490;28;20125;-64
2023/06/04 05:51:52;;;;;;;1.38;0.50;;;16.30;57.60;;;;;;5022224;28;20443;-64
2023/06/04 05:54:18;;;;;;;0.85;0.30;;;16.30;57.40;;;;;;5029361;28;20030;-64
2023/06/04 05:56:44;;;;;;;1.77;1.02;;;16.40;57.20;;;;;;5028765;28;20033;-64
2023/06/04 05:59:10;;;;;;;0.70;0.50;;;16.50;57.20;;;;;;5026797;28;20377;-63
2023/06/04 06:01:36;;;;;;;0.50;0.50;;;16.60;57.20;;;;;;5027570;28;20022;-64
2023/06/04 06:04:02;;;;;;;0.85;0.55;;;16.60;57.10;;;;;;5029178;28;20032;-64
2023/06/04 06:06:28;;;;;;;1.70;0.57;;;16.70;57.00;;;;;;5031030;28;20037;-64
2023/06/04 06:08:54;;;;;;;0.73;0.50;;;16.80;56.70;;;;;;5025775;28;20138;-64
2023/06/04 06:11:20;;;;;;;0.95;0.63;;;16.90;56.60;;;;;;5026611;28;20108;-64
2023/06/04 06:13:46;;;;;;;0.47;0.47;;;16.90;56.40;;;;;;5027137;28;20034;-64
2023/06/04 06:16:12;;;;;;;0.90;0.55;;;17.00;56.40;;;;;;5027495;28;20497;-62
2023/06/04 06:18:37;;;;;;;0.55;0.55;;;17.10;56.30;;;;;;5026804;28;20033;-63
2023/06/04 06:21:03;;;;;;;0.47;0.47;;;17.10;56.10;;;;;;5017020;28;20041;-63
2023/06/04 06:23:29;;;;;;;0.22;0.22;;;17.20;56.00;;;;;;5023977;28;20080;-63
2023/06/04 06:25:55;;;;;;;0.98;0.40;;;17.30;55.90;;;;;;5019754;28;20030;-63
2023/06/04 06:28:21;;;;;;;1.23;0.43;;;17.30;55.70;;;;;;5025206;28;20732;-63
2023/06/04 06:30:47;;;;;;;0.30;0.30;;;17.40;55.90;;;;;;5029678;28;20025;-63
2023/06/04 06:33:13;;;;;;;0.70;0.30;;;17.50;55.50;;;;;;5029364;28;20140;-63
2023/06/04 06:35:39;;;;;;;0.40;0.40;;;17.60;55.50;;;;;;5030867;28;20124;-63
2023/06/04 06:38:05;;;;;;;0.75;0.30;;;17.70;55.40;;;;;;5030418;28;20026;-63
2023/06/04 06:40:30;;;;;;;0.40;0.40;;;17.80;55.20;;;;;;5031170;28;20028;-63
2023/06/04 06:42:56;;;;;;;0.60;0.47;;;17.80;55.00;;;;;;5029933;28;20064;-64
2023/06/04 06:45:22;;;;;;;0.40;0.40;;;17.90;55.00;;;;;;5030729;28;20143;-63
2023/06/04 06:47:48;;;;;;;0.65;0.40;;;17.90;54.70;;;;;;5030700;28;20044;-64
2023/06/04 06:50:14;;;;;;;0.47;0.47;;;18.00;54.60;;;;;;5038495;28;20026;-63
2023/06/04 06:52:39;;;;;;;1.38;0.50;;;18.00;54.50;;;;;;5032587;28;20082;-63
2023/06/04 06:55:06;;;;;;;1.75;0.45;;;18.10;54.70;;;;;;5032131;28;20038;-63
2023/06/04 06:57:33;;;;;;;0.93;0.68;;;18.10;54.70;;;;;;5035358;28;20529;-64
2023/06/04 06:59:59;;;;;;;1.20;0.45;;;18.20;54.60;;;;;;5035342;28;20059;-64
2023/06/04 07:02:25;;;;;;;0.93;0.50;;;18.30;54.60;;;;;;5031713;28;20430;-61
2023/06/04 07:04:50;;;;;;;0.30;0.30;;;18.30;54.60;;;;;;5029719;28;20090;-64
2023/06/04 07:07:17;;;;;;;0.35;0.35;;;18.40;54.50;;;;;;5032154;28;20056;-61
2023/06/04 07:09:42;;;;;;;1.55;0.40;;;18.50;54.30;;;;;;5029212;28;20423;-62
2023/06/04 07:12:08;;;;;;;0.98;0.50;;;18.60;54.30;;;;;;5033752;28;20050;-61
2023/06/04 07:14:34;;;;;;;0.63;0.50;;;18.70;54.20;;;;;;5032931;28;20096;-62
2023/06/04 07:17:00;;;;;;;0.32;0.30;;;18.70;54.30;;;;;;5041057;28;20174;-61
2023/06/04 07:19:25;;;;;;;1.15;0.40;;;18.70;54.40;;;;;;5036097;28;20049;-64
2023/06/04 07:21:55;;;;;;;0.38;0.30;;;18.80;54.20;;;;;;5035856;28;20029;-64
2023/06/04 07:24:21;;;;;;;0.30;0.30;;;18.90;53.90;;;;;;5030907;28;20388;-64
2023/06/04 07:26:48;;;;;;;0.90;0.73;;;19.00;53.60;;;;;;5039174;28;20313;-61
2023/06/04 07:29:13;;;;;;;0.65;0.40;;;19.10;53.30;;;;;;5037962;28;20558;-61
2023/06/04 07:31:39;;;;;;;2.45;0.40;;;19.20;52.90;;;;;;5033478;28;20033;-61
2023/06/04 07:34:05;;;;;;;0.63;0.50;;;19.30;52.80;;;;;;5036781;28;20057;-61
2023/06/04 07:36:31;;;;;;;0.88;0.60;;;19.40;52.20;;;;;;5026875;28;20036;-61
2023/06/04 07:38:56;;;;;;;4.68;0.57;;;19.50;52.30;;;;;;5023778;28;20104;-62
2023/06/04 07:41:22;;;;;;;0.45;0.30;;;19.50;52.00;;;;;;5018405;28;20083;-62
2023/06/04 07:43:49;;;;;;;0.20;0.20;;;19.60;51.90;;;;;;5028570;28;20465;-62
2023/06/04 07:46:18;;;;;;;1.08;0.60;;;19.70;51.80;;;;;;5030356;28;20481;-62
2023/06/04 07:48:44;;;;;;;1.65;0.38;;;19.80;51.50;;;;;;5025209;28;20522;-62
2023/06/04 07:51:11;;;;;;;0.30;0.30;;;19.90;51.30;;;;;;5029539;28;20025;-61
2023/06/04 07:53:37;;;;;;;1.67;0.63;;;20.00;51.20;;;;;;5029500;28;20040;-61
2023/06/04 07:56:03;;;;;;;0.22;0.22;;;20.10;51.00;;;;;;5034266;28;20431;-61
2023/06/04 07:58:29;;;;;;;0.30;0.30;;;20.20;50.70;;;;;;5032393;28;20075;-62
2023/06/04 08:00:55;;;;;;;0.60;0.50;;;20.30;50.70;;;;;;5026827;28;20412;-62
2023/06/04 08:03:22;;;;;;;0.40;0.40;;;20.30;50.30;;;;;;5025464;28;20108;-62
2023/06/04 08:05:48;;;;;;;1.30;0.43;;;20.40;49.80;;;;;;5025074;28;20477;-62
2023/06/04 08:08:13;;;;;;;1.13;0.30;;;20.60;49.60;;;;;;5022473;28;20047;-62
2023/06/04 08:10:39;;;;;;;0.68;0.57;;;20.70;50.10;;;;;;5026092;28;20069;-62
2023/06/04 08:13:05;;;;;;;0.40;0.30;;;20.80;49.20;;;;;;5022710;28;20033;-62
2023/06/04 08:15:31;;;;;;;0.40;0.40;;;20.90;49.10;;;;;;5028609;28;20532;-62
2023/06/04 08:17:57;;;;;;;0.28;0.25;;;21.00;48.70;;;;;;5027776;28;20504;-62
2023/06/04 08:20:23;;;;;;;1.55;0.32;;;21.10;48.40;;;;;;5031139;28;20030;-62
2023/06/04 08:22:49;;;;;;;0.30;0.30;;;21.20;48.00;;;;;;5027980;28;20120;-62
2023/06/04 08:25:15;;;;;;;0.30;0.30;;;21.30;48.00;;;;;;5025873;28;20108;-62
2023/06/04 08:27:42;;;;;;;0.40;0.40;;;21.40;47.60;;;;;;5027739;28;20009;-62
2023/06/04 08:30:08;;;;;;;0.90;0.47;;;21.40;47.40;;;;;;5029007;28;20044;-62
2023/06/04 08:32:34;;;;;;;0.82;0.68;;;21.50;47.40;;;;;;5028823;28;20073;-62
2023/06/04 08:35:00;;;;;;;2.00;0.40;;;21.60;47.50;;;;;;5030567;28;20120;-62
2023/06/04 08:37:25;;;;;;;0.45;0.43;;;21.70;46.70;;;;;;5009228;28;20099;-63
2023/06/04 08:39:52;;;;;;;0.30;0.30;;;21.80;46.20;;;;;;5031289;28;20026;-62
2023/06/04 08:42:34;;;;;;;1.08;0.45;;;21.80;46.10;;;;;;5027559;28;20614;-62
2023/06/04 08:45:00;;;;;;;0.47;0.47;;;22.00;45.90;;;;;;5003183;28;20030;-63
2023/06/04 08:47:28;;;;;;;0.30;0.30;;;22.00;45.60;;;;;;5027421;28;20695;-62
2023/06/04 08:50:01;;;;;;;0.93;0.38;;;22.10;45.40;;;;;;5026685;28;20022;-62
2023/06/04 08:52:27;;;;;;;0.40;0.40;;;22.20;45.40;;;;;;5022881;28;20068;-62
2023/06/04 08:54:54;;;;;;;0.20;0.20;;;22.20;45.20;;;;;;5011528;28;20033;-62
2023/06/04 08:57:21;;;;;;;1.08;0.40;;;22.30;45.20;;;;;;5026993;28;20069;-63
2023/06/04 08:59:48;;;;;;;0.75;0.30;;;22.40;44.90;;;;;;5030844;28;20060;-63
2023/06/04 09:02:17;;;;;;;0.43;0.40;;;22.40;44.30;;;;;;5024615;28;20357;-63
2023/06/04 09:04:44;;;;;;;1.55;0.75;;;22.50;44.50;;;;;;5029241;28;20021;-63
2023/06/04 09:07:14;;;;;;;0.50;0.40;;;22.50;44.40;;;;;;5030696;28;20045;-62
2023/06/04 09:09:41;;;;;;;0.47;0.47;;;22.60;44.00;;;;;;5018558;28;20120;-62
2023/06/04 09:12:16;;;;;;;0.50;0.20;;;22.70;42.70;;;;;;5035357;28;20387;-62
2023/06/04 09:14:41;;;;;;;0.30;0.30;;;22.70;43.10;;;;;;5043619;28;20480;-63
2023/06/04 09:17:07;;;;;;;0.43;0.30;;;22.70;43.30;;;;;;5031013;28;20032;-63
2023/06/04 09:19:33;;;;;;;0.70;0.30;;;22.80;43.30;;;;;;5030815;28;20026;-62
2023/06/04 09:22:03;;;;;;;0.50;0.32;;;22.90;42.80;;;;;;5070195;28;20024;-62
2023/06/04 09:24:40;;;;;;;0.90;0.52;;;23.00;42.60;;;;;;5031600;28;20034;-63
2023/06/04 09:27:11;;;;;;;0.28;0.28;;;23.10;42.50;;;;;;5030452;28;20140;-62
2023/06/04 09:29:37;;;;;;;0.40;0.40;;;23.30;42.30;;;;;;5038472;28;20416;-63
2023/06/04 09:32:03;;;;;;;0.28;0.28;;;23.30;41.50;;;;;;5029938;28;20026;-62
2023/06/04 09:34:30;;;;;;;0.20;0.20;;;23.40;41.30;;;;;;5031777;28;20040;-63
2023/06/04 09:36:56;;;;;;;0.30;0.30;;;23.50;41.10;;;;;;5039730;28;20038;-63
2023/06/04 09:39:23;;;;;;;0.95;0.57;;;23.50;40.50;;;;;;5025858;28;20456;-63
2023/06/04 09:42:02;;;;;;;0.52;0.52;;;23.60;40.50;;;;;;5026446;28;20528;-63
2023/06/04 09:44:29;;;;;;;0.40;0.32;;;23.80;39.90;;;;;;5029932;28;20029;-64
2023/06/04 09:46:58;;;;;;;0.55;0.40;;;23.90;40.00;;;;;;5030547;28;20091;-63
2023/06/04 09:49:24;;;;;;;1.85;0.30;;;23.90;39.30;;;;;;5031430;28;20030;-63
2023/06/04 09:51:50;;;;;;;0.30;0.30;;;23.90;39.30;;;;;;5029319;28;20038;-63
2023/06/04 09:54:16;;;;;;;1.13;0.30;;;24.00;38.90;;;;;;5030133;28;20033;-63
2023/06/04 09:56:42;;;;;;;0.30;0.30;;;24.10;39.20;;;;;;5023983;28;20037;-64
2023/06/04 09:59:13;;;;;;;0.65;0.30;;;24.30;38.80;;;;;;5021452;28;20480;-63
2023/06/04 10:01:43;;;;;;;0.50;0.50;;;24.40;37.90;;;;;;5014280;28;20025;-63
2023/06/04 10:04:11;;;;;;;0.40;0.40;;;24.40;37.50;;;;;;5020773;28;20021;-63
2023/06/04 10:06:39;;;;;;;0.32;0.32;;;24.50;37.70;;;;;;5023387;28;20021;-63
2023/06/04 10:09:07;;;;;;;0.80;0.50;;;24.50;37.80;;;;;;5026734;28;20052;-63
2023/06/04 10:11:57;;;;;;;0.30;0.30;;;24.50;37.70;;;;;;5025994;28;20074;-63
2023/06/04 10:14:29;;;;;;;0.30;0.30;;;24.70;37.70;;;;;;5024988;28;20120;-64
2023/06/04 10:16:58;;;;;;;0.40;0.38;;;24.70;37.50;;;;;;5028176;28;20029;-63
2023/06/04 10:19:25;;;;;;;0.40;0.40;;;24.90;37.50;;;;;;5023875;28;20028;-63
2023/06/04 10:21:52;;;;;;;0.47;0.47;;;24.90;37.30;;;;;;5026036;28;20362;-62
2023/06/04 10:24:20;;;;;;;0.50;0.50;;;25.10;37.50;;;;;;5022240;28;20021;-63
2023/06/04 10:26:47;;;;;;;1.05;0.60;;;25.20;37.30;;;;;;5025129;28;20220;-63
2023/06/04 10:29:14;;;;;;;0.20;0.20;;;25.30;37.00;;;;;;5021947;28;20507;-63
2023/06/04 10:31:41;;;;;;;0.52;0.47;;;25.40;37.10;;;;;;5022515;28;20112;-62
2023/06/04 10:34:07;;;;;;;0.80;0.32;;;25.50;36.90;;;;;;5028766;28;20492;-63
2023/06/04 10:36:43;;;;;;;0.30;0.30;;;25.50;36.60;;;;;;5022176;28;20041;-63
2023/06/04 10:39:08;;;;;;;0.93;0.45;;;25.60;36.60;;;;;;5027277;28;20034;-63
2023/06/04 10:41:34;;;;;;;0.40;0.38;;;25.70;36.50;;;;;;5023389;28;20036;-63
2023/06/04 10:44:01;;;;;;;0.38;0.25;;;25.80;36.50;;;;;;5022907;28;20934;-64
2023/06/04 10:46:40;;;;;;;0.35;0.30;;;25.90;36.20;;;;;;5021583;28;20104;-63
2023/06/04 10:49:05;;;;;;;0.40;0.30;;;26.00;35.90;;;;;;5024431;28;20112;-64
2023/06/04 10:51:33;;;;;;;0.20;0.20;;;26.10;36.00;;;;;;5025802;28;20196;-63
2023/06/04 10:54:02;;;;;;;0.40;0.40;;;26.20;35.80;;;;;;5023229;28;20044;-64
2023/06/04 10:56:29;;;;;;;0.38;0.38;;;26.40;35.50;;;;;;5022203;28;20440;-63
2023/06/04 10:58:55;;;;;;;0.40;0.40;;;26.40;35.00;;;;;;5024945;28;20029;-64
2023/06/04 11:01:31;;;;;;;0.40;0.40;;;26.50;35.40;;;;;;5023974;28;20043;-64
2023/06/04 11:03:57;;;;;;;0.40;0.35;;;26.60;35.40;;;;;;5028023;28;20075;-64
2023/06/04 11:06:27;;;;;;;0.40;0.32;;;26.70;35.50;;;;;;5022785;28;20026;-63
2023/06/04 11:09:03;;;;;;;0.30;0.30;;;26.80;35.50;;;;;;5027377;28;20104;-64
2023/06/04 11:11:29;;;;;;;1.00;0.40;;;26.90;35.20;;;;;;5028274;28;20018;-63
2023/06/04 11:13:55;;;;;;;0.22;0.22;;;27.00;35.00;;;;;;5029643;28;20026;-63
2023/06/04 11:16:22;;;;;;;0.40;0.40;;;27.10;35.30;;;;;;5026214;28;20025;-63
2023/06/04 11:18:58;;;;;;;0.47;0.47;;;27.10;34.50;;;;;;5025941;28;20022;-63
2023/06/04 11:21:24;;;;;;;0.88;0.40;;;27.20;34.70;;;;;;5027493;28;20055;-63
2023/06/04 11:23:56;;;;;;;0.55;0.47;;;27.20;34.50;;;;;;5027629;28;20054;-63
2023/06/04 11:26:22;;;;;;;0.80;0.32;;;27.30;34.60;;;;;;5028307;28;20534;-63
2023/06/04 11:28:51;;;;;;;1.20;0.40;;;27.40;34.70;;;;;;5028767;28;20033;-63
2023/06/04 11:31:17;;;;;;;0.47;0.30;;;27.40;33.90;;;;;;5023428;28;20065;-63
2023/06/04 11:33:46;;;;;;;0.43;0.43;;;27.50;34.10;;;;;;5030074;28;20142;-63
2023/06/04 11:36:29;;;;;;;0.40;0.40;;;27.50;34.20;;;;;;5025283;28;20041;-64
2023/06/04 11:38:59;;;;;;;0.32;0.30;;;27.70;34.00;;;;;;5024486;28;20030;-63
2023/06/04 11:41:28;;;;;;;0.40;0.40;;;27.80;34.20;;;;;;5028019;28;20028;-64
2023/06/04 11:43:56;;;;;;;0.52;0.40;;;27.90;34.00;;;;;;5024052;28;20018;-64
2023/06/04 11:46:23;;;;;;;0.35;0.35;;;27.90;33.70;;;;;;5040888;28;20033;-63
2023/06/04 11:48:52;;;;;;;0.55;0.50;;;28.00;33.70;;;;;;5021437;28;20021;-64
2023/06/04 11:51:17;;;;;;;0.43;0.38;;;28.00;33.30;;;;;;5026236;28;20026;-63
2023/06/04 11:53:43;;;;;;;0.98;0.50;;;28.00;33.50;;;;;;5029549;28;20122;-64
2023/06/04 11:56:09;;;;;;;0.45;0.43;;;28.10;33.30;;;;;;5029267;28;20175;-64
2023/06/04 11:58:35;;;;;;;0.30;0.30;;;28.20;33.40;;;;;;5016485;28;20022;-63
2023/06/04 12:01:01;;;;;;;0.40;0.40;;;28.20;33.10;;;;;;5027826;28;20247;-64
2023/06/04 12:03:39;;;;;;;0.40;0.30;;;28.30;33.30;;;;;;5029527;28;20134;-64
2023/06/04 12:06:15;;;;;;;0.50;0.50;;;28.30;32.50;;;;;;5026990;28;20040;-64
2023/06/04 12:08:50;;;;;;;0.95;0.40;;;28.30;32.70;;;;;;5027892;28;20021;-64
2023/06/04 12:11:26;;;;;;;0.30;0.30;;;28.30;32.70;;;;;;5020518;28;20028;-64
2023/06/04 12:13:56;;;;;;;0.30;0.30;;;28.30;32.70;;;;;;5031363;28;20029;-63
2023/06/04 12:16:22;;;;;;;0.60;0.60;;;28.30;32.70;;;;;;5027278;28;20083;-63
2023/06/04 12:18:50;;;;;;;0.38;0.32;;;28.30;32.10;;;;;;5024666;28;20021;-64
2023/06/04 12:21:26;;;;;;;0.30;0.30;;;28.30;32.60;;;;;;5019216;28;20018;-64
2023/06/04 12:24:15;;;;;;;1.30;0.60;;;28.50;32.70;;;;;;5023623;28;20487;-63
2023/06/04 12:26:43;;;;;;;0.57;0.50;;;28.70;32.40;;;;;;5023596;28;20025;-64
2023/06/04 12:29:17;;;;;;;0.32;0.32;;;28.80;32.40;;;;;;5029294;28;20059;-63
2023/06/04 12:31:45;;;;;;;0.52;0.52;;;28.90;32.40;;;;;;5031069;28;20057;-64
2023/06/04 12:34:13;;;;;;;1.17;0.50;;;29.10;33.00;;;;;;5028832;28;20054;-63
2023/06/04 12:36:40;;;;;;;0.40;0.40;;;29.20;32.50;;;;;;5031015;28;20095;-64
2023/06/04 12:39:07;;;;;;;0.43;0.43;;;29.20;32.40;;;;;;5033695;28;20029;-64
2023/06/04 12:41:33;;;;;;;0.50;0.50;;;29.20;32.30;;;;;;5023166;28;20032;-64
2023/06/04 12:44:00;;;;;;;0.40;0.40;;;29.20;32.00;;;;;;5024359;28;20018;-64
2023/06/04 12:46:26;;;;;;;0.82;0.60;;;29.30;32.30;;;;;;5020603;28;20507;-64
2023/06/04 12:48:53;;;;;;;0.73;0.40;;;29.30;32.00;;;;;;5033681;28;20117;-64
2023/06/04 12:51:20;;;;;;;0.50;0.50;;;29.40;31.90;;;;;;5028188;28;20041;-64